^^
Saratoga-Weather Station Historical Data
Daily Summary for September 26, 2021 Units:  English    Metric   Both
Daily Weekly Monthly Yearly Custom
  High: Low: Average:
Temperature: 56.8 °F 46.9 °F 51.1 °F
Dew Point: 52.7 °F 45.3 °F 47.5 °F
Humidity: 95% 72% 88%
Wind Speed: 13mph 0mph 3mph
Wind Gust: 23mph - -
Wind- - WSW
Pressure: 30.1 in 29.9 in -
Precipitation: 0.44 in    
Historical Graphs
 
 
Tabular Data for September 26, 2021
Time Temperature Dew Point Pressure Wind Wind Speed Wind Gust Humidity Rainfall Rate (Hourly) solar
00:03 48.4 °F 45.9 °F 30.1 in WNW 0.9 mph 2 mph 91% 0 in 0 W/m2
00:08 48.2 °F 45.7 °F 30 in West 2.9 mph 6 mph 91% 0 in 0 W/m2
00:13 48.2 °F 45.7 °F 30 in WNW 0.9 mph 4 mph 91% 0 in 0 W/m2
00:18 48.2 °F 45.7 °F 30 in Calm   1 mph 91% 0 in 0 W/m2
00:23 48 °F 45.5 °F 30 in Calm     91% 0 in 0 W/m2
00:28 47.8 °F 45.3 °F 30 in Calm     91% 0 in 0 W/m2
00:33 47.8 °F 45.7 °F 30 in Calm     92% 0 in 0 W/m2
00:38 47.7 °F 45.5 °F 30 in Calm   1 mph 92% 0.01 in 0 W/m2
00:43 47.7 °F 45.5 °F 30 in WNW 0.9 mph 2 mph 92% 0.01 in 0 W/m2
00:48 47.7 °F 45.5 °F 30 in SSW 2 mph 3 mph 92% 0.01 in 0 W/m2
00:53 47.7 °F 45.5 °F 30 in SW 0.9 mph 1 mph 92% 0.01 in 0 W/m2
00:58 47.7 °F 45.5 °F 30 in Calm   2 mph 92% 0.01 in 0 W/m2
01:03 47.8 °F 45.7 °F 30 in WNW 2 mph 2 mph 92% 0.01 in 0 W/m2
01:08 48 °F 45.9 °F 30 in SSW 4 mph 5 mph 92% 0.01 in 0 W/m2
01:13 48 °F 45.9 °F 30 in Calm   2 mph 92% 0.01 in 0 W/m2
01:18 48 °F 45.5 °F 30 in West 2 mph 4 mph 91% 0.02 in 0 W/m2
01:23 48.2 °F 45.7 °F 30 in WNW 0.9 mph 2 mph 91% 0.02 in 0 W/m2
01:28 48.2 °F 46 °F 30 in WSW 4 mph 4 mph 92% 0.02 in 0 W/m2
01:33 48 °F 45.9 °F 30 in West 2 mph 6 mph 92% 0.02 in 0 W/m2
01:38 48 °F 45.9 °F 30 in WNW 2.9 mph 4 mph 92% 0.02 in 0 W/m2
01:43 48 °F 45.9 °F 30 in West 0.9 mph 2 mph 92% 0.02 in 0 W/m2
01:48 48 °F 45.9 °F 30 in Calm   1 mph 92% 0.02 in 0 W/m2
01:53 47.8 °F 45.7 °F 30 in West 0.9 mph 1 mph 92% 0.02 in 0 W/m2
01:58 47.8 °F 45.7 °F 30 in Calm   2 mph 92% 0.02 in 0 W/m2
02:03 47.8 °F 45.9 °F 30 in South 2 mph 2 mph 93% 0.02 in 0 W/m2
02:08 47.7 °F 45.5 °F 30 in Calm   2 mph 92% 0.03 in 0 W/m2
02:13 47.7 °F 45.7 °F 30 in Calm   2 mph 93% 0.03 in 0 W/m2
02:18 47.7 °F 45.7 °F 30 in Calm     93% 0.02 in 0 W/m2
02:23 47.7 °F 45.7 °F 30 in Calm   1 mph 93% 0.02 in 0 W/m2
02:28 47.5 °F 45.5 °F 30 in Calm   1 mph 93% 0.02 in 0 W/m2
02:33 47.5 °F 45.5 °F 30 in Calm   1 mph 93% 0.02 in 0 W/m2
02:38 47.5 °F 45.5 °F 30 in East 2 mph 2 mph 93% 0.02 in 0 W/m2
02:43 47.3 °F 45.3 °F 30 in Calm     93% 0.02 in 0 W/m2
02:48 47.3 °F 45.3 °F 30 in Calm     93% 0.02 in 0 W/m2
02:53 47.3 °F 45.7 °F 30 in East 0.9 mph 1 mph 94% 0.02 in 0 W/m2
02:58 47.1 °F 45.5 °F 30 in Calm   2 mph 94% 0.02 in 0 W/m2
03:03 47.3 °F 45.7 °F 30 in Calm   1 mph 94% 0.02 in 0 W/m2
03:08 47.1 °F 45.5 °F 30 in Calm   1 mph 94% 0.02 in 0 W/m2
03:13 47.1 °F 45.5 °F 30 in Calm     94% 0.02 in 0 W/m2
03:18 47.1 °F 45.5 °F 30 in Calm   1 mph 94% 0.03 in 0 W/m2
03:23 47.1 °F 45.5 °F 30 in Calm     94% 0.04 in 0 W/m2
03:28 47.1 °F 45.5 °F 30 in ENE 0.9 mph 1 mph 94% 0.05 in 0 W/m2
03:33 47.1 °F 45.5 °F 30 in Calm     94% 0.06 in 0 W/m2
03:38 47.1 °F 45.5 °F 30 in Calm   2 mph 94% 0.06 in 0 W/m2
03:43 47.1 °F 45.5 °F 30 in Calm   1 mph 94% 0.07 in 0 W/m2
03:48 47.1 °F 45.5 °F 30 in East 2 mph 2 mph 94% 0.07 in 0 W/m2
03:53 47.1 °F 45.5 °F 30 in Calm   1 mph 94% 0.07 in 0 W/m2
03:58 47.1 °F 45.5 °F 30 in Calm   1 mph 94% 0.08 in 0 W/m2
04:03 47.1 °F 45.5 °F 30 in Calm   1 mph 94% 0.09 in 0 W/m2
04:08 47.1 °F 45.5 °F 30 in NNW 2 mph 2 mph 94% 0.09 in 0 W/m2
04:13 47.1 °F 45.5 °F 30 in Calm     94% 0.09 in 0 W/m2
04:18 46.9 °F 45.3 °F 30 in East 0.9 mph 3 mph 94% 0.08 in 0 W/m2
04:23 46.9 °F 45.3 °F 30 in ENE 2.9 mph 3 mph 94% 0.08 in 0 W/m2
04:28 46.9 °F 45.3 °F 30 in ENE 0.9 mph 2 mph 94% 0.07 in 0 W/m2
04:33 46.9 °F 45.3 °F 30 in ENE 2 mph 3 mph 94% 0.06 in 0 W/m2
04:38 46.9 °F 45.3 °F 30 in ENE 2.9 mph 4 mph 94% 0.06 in 0 W/m2
04:43 46.9 °F 45.3 °F 29.9 in ENE 2 mph 3 mph 94% 0.06 in 0 W/m2
04:48 46.9 °F 45.5 °F 29.9 in Calm   2 mph 95% 0.05 in 0 W/m2
04:53 46.9 °F 45.5 °F 29.9 in NW 0.9 mph 2 mph 95% 0.05 in 0 W/m2
04:58 46.9 °F 45.5 °F 29.9 in ESE 0.9 mph 2 mph 95% 0.05 in 0 W/m2
05:03 46.9 °F 45.5 °F 29.9 in Calm     95% 0.04 in 0 W/m2
05:08 46.9 °F 45.5 °F 29.9 in Calm     95% 0.04 in 0 W/m2
05:13 46.9 °F 45.5 °F 29.9 in ESE 0.9 mph 1 mph 95% 0.03 in 0 W/m2
05:18 46.9 °F 45.5 °F 29.9 in ENE 2 mph 3 mph 95% 0.03 in 0 W/m2
05:23 46.9 °F 45.5 °F 29.9 in Calm   4 mph 95% 0.03 in 0 W/m2
05:28 46.9 °F 45.5 °F 29.9 in East 0.9 mph 1 mph 95% 0.03 in 0 W/m2
05:33 47.1 °F 45.7 °F 29.9 in ENE 0.9 mph 3 mph 95% 0.03 in 0 W/m2
05:38 47.1 °F 45.7 °F 29.9 in NE 0.9 mph 2 mph 95% 0.03 in 0 W/m2
05:43 47.1 °F 45.7 °F 29.9 in Calm   1 mph 95% 0.03 in 0 W/m2
05:48 47.1 °F 45.7 °F 29.9 in NNW 0.9 mph 3 mph 95% 0.03 in 0 W/m2
05:53 47.3 °F 45.9 °F 29.9 in North 2 mph 2 mph 95% 0.04 in 0 W/m2
05:58 47.5 °F 46 °F 29.9 in Calm   2 mph 95% 0.03 in 0 W/m2
06:03 47.5 °F 46 °F 29.9 in NE 2 mph 2 mph 95% 0.04 in 7 W/m2
06:08 47.5 °F 46 °F 29.9 in Calm   2 mph 95% 0.03 in 9 W/m2
06:13 47.7 °F 46.2 °F 29.9 in NE 2 mph 4 mph 95% 0.03 in 11 W/m2
06:18 47.7 °F 46.2 °F 29.9 in NE 0.9 mph 2 mph 95% 0.03 in 7 W/m2
06:23 47.7 °F 46 °F 29.9 in West 2.9 mph 3 mph 94% 0.02 in 14 W/m2
06:28 47.8 °F 46.2 °F 29.9 in NW 2.9 mph 4 mph 94% 0.02 in 25 W/m2
06:33 47.8 °F 46.2 °F 29.9 in NNW 0.9 mph 4 mph 94% 0.02 in 26 W/m2
06:38 47.8 °F 46.2 °F 29.9 in WNW 0.9 mph 5 mph 94% 0.02 in 18 W/m2
06:43 47.8 °F 46.2 °F 29.9 in West 0.9 mph 3 mph 94% 0.02 in 32 W/m2
06:48 47.8 °F 46.2 °F 29.9 in East 2 mph 4 mph 94% 0.02 in 23 W/m2
06:53 48 °F 46.4 °F 29.9 in West 0.9 mph 6 mph 94% 0.01 in 18 W/m2
06:58 48 °F 46.4 °F 29.9 in Calm   2 mph 94% 0.01 in 14 W/m2
07:03 48 °F 46.4 °F 29.9 in North 2 mph 6 mph 94% 0.01 in 25 W/m2
07:08 48 °F 46.4 °F 29.9 in NE 0.9 mph 2 mph 94% 0.01 in 25 W/m2
07:13 48 °F 46.4 °F 29.9 in Calm   4 mph 94% 0.01 in 21 W/m2
07:18 48 °F 46.4 °F 29.9 in NE 4 mph 4 mph 94% 0.01 in 40 W/m2
07:23 48 °F 46.4 °F 29.9 in Calm   2 mph 94% 0.01 in 33 W/m2
07:28 48 °F 46 °F 29.9 in East 0.9 mph 4 mph 93% 0.02 in 37 W/m2
07:33 48 °F 46 °F 29.9 in Calm   2 mph 93% 0.02 in 69 W/m2
07:38 48 °F 46 °F 29.9 in NNE 2 mph 2 mph 93% 0.02 in 60 W/m2
07:43 48.2 °F 46.2 °F 29.9 in Calm   5 mph 93% 0.02 in 32 W/m2
07:48 48.2 °F 46.2 °F 29.9 in WNW 0.9 mph 2 mph 93% 0.02 in 42 W/m2
07:53 48.2 °F 46.6 °F 29.9 in NW 2 mph 2 mph 94% 0.02 in 42 W/m2
07:58 48.2 °F 46.2 °F 29.9 in East 2 mph 3 mph 93% 0.02 in 56 W/m2
08:03 48.2 °F 46.6 °F 29.9 in East 2 mph 3 mph 94% 0.02 in 98 W/m2
08:08 48.4 °F 46.8 °F 29.9 in Calm   3 mph 94% 0.02 in 88 W/m2
08:13 48.4 °F 46.8 °F 29.9 in NNW 0.9 mph 2 mph 94% 0.03 in 100 W/m2
08:18 48.6 °F 46.9 °F 29.9 in WNW 2.9 mph 5 mph 94% 0.03 in 91 W/m2
08:23 48.6 °F 46.9 °F 29.9 in Calm   2 mph 94% 0.03 in 98 W/m2
08:28 48.7 °F 47.1 °F 29.9 in NNE 2 mph 3 mph 94% 0.02 in 113 W/m2
08:33 48.7 °F 47.1 °F 29.9 in NNE 4 mph 4 mph 94% 0.03 in 107 W/m2
08:38 48.9 °F 47.3 °F 29.9 in Calm   3 mph 94% 0.03 in 102 W/m2
08:43 48.9 °F 47.3 °F 29.9 in North 0.9 mph 4 mph 94% 0.04 in 116 W/m2
08:48 48.9 °F 47.3 °F 29.9 in NE 2 mph 5 mph 94% 0.04 in 97 W/m2
08:53 48.9 °F 47.3 °F 29.9 in NE 0.9 mph 4 mph 94% 0.05 in 130 W/m2
08:58 49.1 °F 47.5 °F 29.9 in NNE 2 mph 5 mph 94% 0.05 in 95 W/m2
09:03 49.3 °F 47.7 °F 29.9 in NE 0.9 mph 4 mph 94% 0.05 in 86 W/m2
09:09 49.3 °F 47.7 °F 29.9 in ENE 2.9 mph 6 mph 94% 0.06 in 95 W/m2
09:14 49.3 °F 47.7 °F 29.9 in NE 2 mph 4 mph 94% 0.06 in 95 W/m2
09:19 49.3 °F 47.7 °F 29.9 in NNW 2.9 mph 5 mph 94% 0.06 in 148 W/m2
09:24 49.5 °F 47.8 °F 29.9 in ESE 2 mph 3 mph 94% 0.06 in 105 W/m2
09:29 49.5 °F 47.8 °F 29.9 in WNW 2 mph 5 mph 94% 0.07 in 127 W/m2
09:34 49.6 °F 48 °F 29.9 in NW 2 mph 3 mph 94% 0.06 in 139 W/m2
09:39 49.6 °F 48 °F 29.9 in East 4 mph 6 mph 94% 0.07 in 141 W/m2
09:44 49.8 °F 48.2 °F 29.9 in West 4 mph 7 mph 94% 0.07 in 128 W/m2
09:49 49.8 °F 48.2 °F 29.9 in NNW 2.9 mph 10 mph 94% 0.06 in 186 W/m2
09:54 49.8 °F 48.2 °F 29.9 in NW 0.9 mph 7 mph 94% 0.06 in 206 W/m2
09:59 50 °F 48.4 °F 29.9 in North 0.9 mph 4 mph 94% 0.07 in 148 W/m2
10:04 50.2 °F 48.6 °F 29.9 in NE 2.9 mph 9 mph 94% 0.06 in 114 W/m2
10:09 50.2 °F 48.6 °F 29.9 in ENE 2.9 mph 4 mph 94% 0.06 in 153 W/m2
10:14 50.2 °F 48.6 °F 29.9 in West 4 mph 9 mph 94% 0.06 in 207 W/m2
10:19 50.4 °F 48.7 °F 29.9 in NW 4.9 mph 7 mph 94% 0.06 in 199 W/m2
10:24 50.4 °F 48.7 °F 29.9 in NNW 2.9 mph 7 mph 94% 0.05 in 186 W/m2
10:29 50.5 °F 48.9 °F 29.9 in Calm   5 mph 94% 0.04 in 174 W/m2
10:34 50.5 °F 48.9 °F 29.9 in NW 2 mph 4 mph 94% 0.05 in 167 W/m2
10:39 50.7 °F 49.1 °F 29.9 in NW 4.9 mph 6 mph 94% 0.04 in 202 W/m2
10:44 50.9 °F 49.3 °F 29.9 in SSW 2 mph 7 mph 94% 0.03 in 186 W/m2
10:49 50.9 °F 49.3 °F 29.9 in SSE 0.9 mph 7 mph 94% 0.03 in 197 W/m2
10:54 51.1 °F 49.5 °F 29.9 in NW 2 mph 8 mph 94% 0.02 in 229 W/m2
10:59 51.3 °F 49.6 °F 29.9 in ESE 8.1 mph 10 mph 94% 0.02 in 207 W/m2
11:04 51.4 °F 49.5 °F 29.9 in West 2 mph 7 mph 93% 0.02 in 315 W/m2
11:09 51.4 °F 49.5 °F 29.9 in NE 2.9 mph 9 mph 93% 0.01 in 250 W/m2
11:14 51.6 °F 49.6 °F 29.9 in WSW 2.9 mph 8 mph 93% 0.01 in 239 W/m2
11:19 52 °F 50 °F 29.9 in ENE 2 mph 3 mph 93% 0.01 in 274 W/m2
11:24 52 °F 50 °F 29.9 in WNW 8.1 mph 10 mph 93% 0.01 in 258 W/m2
11:29 52.2 °F 50.2 °F 29.9 in NNW 0.9 mph 3 mph 93% 0.01 in 241 W/m2
11:34 52.3 °F 50.4 °F 29.9 in West 4 mph 10 mph 93% 0 in 179 W/m2
11:39 52.3 °F 50 °F 29.9 in NW 4 mph 7 mph 92% 0 in 163 W/m2
11:44 52.3 °F 50 °F 29.9 in NNW 2 mph 10 mph 92% 0 in 195 W/m2
11:49 52.3 °F 50 °F 29.9 in NW 4.9 mph 14 mph 92% 0 in 271 W/m2
11:54 52.5 °F 50.2 °F 29.9 in NW 0.9 mph 9 mph 92% 0 in 381 W/m2
11:59 53.1 °F 50.7 °F 29.9 in WSW 2 mph 14 mph 92% 0 in 443 W/m2
12:04 53.6 °F 51.3 °F 29.9 in WNW 2 mph 7 mph 92% 0 in 374 W/m2
12:09 54 °F 51.4 °F 29.9 in SSW 2.9 mph 11 mph 91% 0 in 216 W/m2
12:14 54.3 °F 52 °F 29.9 in WSW 0.9 mph 6 mph 92% 0 in 738 W/m2
12:19 54.7 °F 52.2 °F 29.9 in West 4 mph 9 mph 91% 0 in 795 W/m2
12:24 55.2 °F 52.3 °F 29.9 in WNW 4 mph 10 mph 90% 0 in 795 W/m2
12:29 55.6 °F 52.7 °F 29.9 in WNW 2 mph 5 mph 90% 0 in 795 W/m2
12:34 55.9 °F 52.7 °F 29.9 in WNW 6.9 mph 8 mph 89% 0 in 497 W/m2
12:39 55.8 °F 52 °F 29.9 in WNW 2.9 mph 7 mph 87% 0 in 471 W/m2
12:44 55.8 °F 52 °F 29.9 in WSW 4.9 mph 11 mph 87% 0 in 726 W/m2
12:49 55.6 °F 51.4 °F 29.9 in North 2 mph 13 mph 86% 0 in 290 W/m2
12:54 55 °F 51.3 °F 29.9 in WNW 8.1 mph 12 mph 87% 0 in 302 W/m2
12:59 54.7 °F 51.4 °F 29.9 in WSW 8.1 mph 11 mph 89% 0.01 in 188 W/m2
13:04 54.3 °F 51.1 °F 29.9 in NNW 2 mph 9 mph 89% 0.02 in 262 W/m2
13:09 54.1 °F 51.3 °F 29.9 in North 4 mph 11 mph 90% 0.02 in 410 W/m2
13:14 54.1 °F 51.6 °F 29.9 in Calm   4 mph 91% 0.03 in 130 W/m2
13:19 53.8 °F 51.3 °F 29.9 in West 0.9 mph 8 mph 91% 0.04 in 258 W/m2
13:24 53.8 °F 51.3 °F 29.9 in West 11 mph 11 mph 91% 0.05 in 364 W/m2
13:29 53.8 °F 51.4 °F 29.9 in West 6 mph 8 mph 92% 0.05 in 464 W/m2
13:34 54 °F 51.6 °F 29.9 in WNW 6.9 mph 15 mph 92% 0.05 in 229 W/m2
13:39 54.1 °F 51.8 °F 29.9 in SW 4 mph 12 mph 92% 0.06 in 171 W/m2
13:44 53.8 °F 50.9 °F 29.9 in West 13 mph 23 mph 90% 0.06 in 162 W/m2
13:49 53.4 °F 50.9 °F 29.9 in WNW 6.9 mph 9 mph 91% 0.06 in 425 W/m2
13:54 53.4 °F 50.9 °F 29.9 in West 8.9 mph 22 mph 91% 0.06 in 461 W/m2
13:59 53.8 °F 51.3 °F 29.9 in West 6.9 mph 10 mph 91% 0.06 in 448 W/m2
14:04 53.8 °F 51.4 °F 29.9 in WNW 6 mph 11 mph 92% 0.06 in 294 W/m2
14:09 53.6 °F 51.1 °F 29.9 in NW 4.9 mph 14 mph 91% 0.05 in 223 W/m2
14:14 53.6 °F 51.1 °F 29.9 in West 2 mph 9 mph 91% 0.04 in 666 W/m2
14:19 54.1 °F 51.8 °F 29.9 in West 13 mph 13 mph 92% 0.03 in 608 W/m2
14:24 54.7 °F 52.2 °F 29.9 in WNW 6 mph 12 mph 91% 0.02 in 469 W/m2
14:29 54.7 °F 51.4 °F 29.9 in West 10.1 mph 17 mph 89% 0.02 in 441 W/m2
14:34 55 °F 51.6 °F 29.9 in WNW 6.9 mph 11 mph 88% 0.02 in 538 W/m2
14:39 55.4 °F 52 °F 29.9 in West 8.1 mph 17 mph 88% 0.01 in 176 W/m2
14:44 55.2 °F 51.4 °F 29.9 in West 8.1 mph 17 mph 87% 0.01 in 399 W/m2
14:49 55.2 °F 51.1 °F 29.9 in WNW 8.9 mph 13 mph 86% 0.01 in 325 W/m2
14:54 55.2 °F 51.1 °F 29.9 in WSW 10.1 mph 14 mph 86% 0.01 in 554 W/m2
14:59 55.2 °F 50.7 °F 29.9 in WSW 10.1 mph 17 mph 85% 0.01 in 338 W/m2
15:04 55.2 °F 50.5 °F 29.9 in WNW 2.9 mph 14 mph 84% 0 in 371 W/m2
15:09 55.2 °F 50.5 °F 29.9 in WNW 4 mph 13 mph 84% 0 in 536 W/m2
15:14 55.4 °F 50.7 °F 29.9 in WNW 4.9 mph 11 mph 84% 0 in 469 W/m2
15:19 55.4 °F 50 °F 29.9 in West 11 mph 17 mph 82% 0 in 550 W/m2
15:24 55.6 °F 50.2 °F 29.9 in WNW 2 mph 7 mph 82% 0 in 468 W/m2
15:29 55.9 °F 50.2 °F 29.9 in West 8.1 mph 17 mph 81% 0 in 598 W/m2
15:34 56.1 °F 50 °F 29.9 in West 6.9 mph 11 mph 80% 0 in 510 W/m2
15:39 56.1 °F 49.6 °F 29.9 in WNW 6.9 mph 11 mph 79% 0 in 450 W/m2
15:44 56.1 °F 49.3 °F 29.9 in WSW 2.9 mph 12 mph 78% 0 in 408 W/m2
15:49 56.1 °F 49.6 °F 29.9 in West 4 mph 8 mph 79% 0 in 374 W/m2
15:54 56.3 °F 49.8 °F 29.9 in NW 4.9 mph 10 mph 79% 0 in 394 W/m2
15:59 56.5 °F 48.9 °F 29.9 in West 8.1 mph 14 mph 76% 0 in 404 W/m2
16:04 56.5 °F 49.3 °F 29.9 in WNW 8.9 mph 12 mph 77% 0 in 399 W/m2
16:09 56.1 °F 48.4 °F 29.9 in WNW 6 mph 11 mph 75% 0 in 374 W/m2
16:14 56.3 °F 48.6 °F 29.9 in WNW 8.9 mph 9 mph 75% 0 in 364 W/m2
16:19 56.3 °F 48.6 °F 29.9 in SW 4.9 mph 12 mph 75% 0 in 338 W/m2
16:24 56.3 °F 48.6 °F 29.9 in WNW 8.1 mph 10 mph 75% 0 in 341 W/m2
16:29 56.5 °F 48.7 °F 29.9 in WSW 4.9 mph 12 mph 75% 0 in 403 W/m2
16:34 56.7 °F 48.7 °F 29.9 in NNW 4 mph 10 mph 75% 0 in 350 W/m2
16:39 56.8 °F 48.2 °F 29.9 in West 6 mph 12 mph 73% 0 in 295 W/m2
16:44 56.8 °F 48.2 °F 29.9 in West 13 mph 13 mph 73% 0 in 279 W/m2
16:49 56.7 °F 47.7 °F 29.9 in West 4 mph 12 mph 72% 0 in 178 W/m2
16:54 55.8 °F 47.3 °F 29.9 in WSW 4.9 mph 19 mph 73% 0 in 232 W/m2
16:59 54.7 °F 46.6 °F 29.9 in WNW 6.9 mph 12 mph 74% 0 in 290 W/m2
17:04 54.3 °F 46.9 °F 29.9 in WNW 4.9 mph 19 mph 76% 0 in 327 W/m2
17:09 54.1 °F 45.7 °F 29.9 in West 2.9 mph 9 mph 73% 0 in 297 W/m2
17:14 54.3 °F 46.2 °F 29.9 in WSW 0.9 mph 12 mph 74% 0 in 262 W/m2
17:19 54.3 °F 46.2 °F 29.9 in West 4 mph 7 mph 74% 0 in 250 W/m2
17:24 54.3 °F 46.2 °F 29.9 in West 8.1 mph 9 mph 74% 0 in 258 W/m2
17:29 54.3 °F 46.2 °F 30 in WNW 8.1 mph 10 mph 74% 0 in 255 W/m2
17:34 54.5 °F 46.8 °F 29.9 in West 6 mph 9 mph 75% 0 in 262 W/m2
17:39 54.7 °F 46.9 °F 29.9 in WSW 2.9 mph 12 mph 75% 0 in 258 W/m2
17:44 54.9 °F 47.1 °F 29.9 in West 4 mph 8 mph 75% 0 in 299 W/m2
17:49 54.9 °F 46.8 °F 30 in WNW 8.9 mph 12 mph 74% 0 in 287 W/m2
17:55 55 °F 47.3 °F 29.9 in WSW 8.9 mph 9 mph 75% 0 in 287 W/m2
18:00 55 °F 46.9 °F 30 in NW 4.9 mph 9 mph 74% 0 in 292 W/m2
18:05 55.2 °F 46.8 °F 29.9 in WSW 4.9 mph 7 mph 73% 0 in 278 W/m2
18:10 55.2 °F 46.8 °F 30 in NW 4 mph 9 mph 73% 0 in 230 W/m2
18:15 55 °F 46.9 °F 30 in WSW 4 mph 12 mph 74% 0 in 137 W/m2
18:20 55 °F 46.9 °F 30 in WNW 6.9 mph 11 mph 74% 0 in 197 W/m2
18:25 54.9 °F 46.8 °F 30 in WSW 8.9 mph 11 mph 74% 0 in 156 W/m2
18:30 54.9 °F 47.1 °F 30 in West 6 mph 7 mph 75% 0 in 174 W/m2
18:35 54.9 °F 47.1 °F 30 in WNW 2 mph 10 mph 75% 0 in 202 W/m2
18:40 55 °F 46.6 °F 30 in WNW 6.9 mph 10 mph 73% 0 in 221 W/m2
18:45 54.9 °F 46 °F 30 in NW 8.1 mph 12 mph 72% 0 in 204 W/m2
18:50 54.7 °F 45.9 °F 30 in West 6 mph 12 mph 72% 0 in 149 W/m2
18:55 54.5 °F 45.7 °F 30 in WNW 4.9 mph 12 mph 72% 0 in 162 W/m2
19:00 54.5 °F 45.7 °F 30 in WSW 4.9 mph 9 mph 72% 0 in 185 W/m2
19:05 54.7 °F 46.2 °F 30 in West 8.1 mph 9 mph 73% 0 in 179 W/m2
19:10 54.7 °F 46.2 °F 30 in West 13 mph 13 mph 73% 0 in 225 W/m2
19:15 54.9 °F 46.8 °F 30 in West 2 mph 4 mph 74% 0 in 206 W/m2
19:20 55 °F 46.6 °F 29.9 in WSW 10.1 mph 10 mph 73% 0 in 325 W/m2
19:25 55.2 °F 46.8 °F 29.9 in WSW 2.9 mph 6 mph 73% 0 in 188 W/m2
19:30 55.2 °F 46.8 °F 30 in West 6 mph 8 mph 73% 0 in 251 W/m2
19:35 55 °F 46.6 °F 30 in WSW 4 mph 10 mph 73% 0 in 211 W/m2
19:40 54.9 °F 46.8 °F 30 in West 4 mph 9 mph 74% 0 in 127 W/m2
19:45 54.9 °F 46.8 °F 30 in West 6.9 mph 10 mph 74% 0 in 181 W/m2
19:50 54.9 °F 46.8 °F 30 in WSW 4.9 mph 11 mph 74% 0 in 118 W/m2
19:55 54.7 °F 46.6 °F 30 in WNW 2.9 mph 8 mph 74% 0 in 98 W/m2
20:00 54.3 °F 46.2 °F 30 in West 4 mph 11 mph 74% 0 in 98 W/m2
20:05 54.3 °F 46.2 °F 30 in WNW 4.9 mph 7 mph 74% 0 in 90 W/m2
20:10 54.3 °F 46.6 °F 30 in WNW 2.9 mph 5 mph 75% 0 in 84 W/m2
20:15 54.1 °F 46.4 °F 30 in West 2 mph 8 mph 75% 0 in 76 W/m2
20:20 54 °F 46.2 °F 30 in WSW 2.9 mph 6 mph 75% 0 in 91 W/m2
20:25 54.1 °F 46.8 °F 30 in WNW 2 mph 4 mph 76% 0 in 102 W/m2
20:30 54.3 °F 46.9 °F 30 in WSW 4 mph 9 mph 76% 0 in 98 W/m2
20:35 54.3 °F 46.9 °F 30 in WSW 2.9 mph 4 mph 76% 0 in 97 W/m2
20:40 54.5 °F 47.5 °F 30 in WNW 2 mph 9 mph 77% 0 in 79 W/m2
20:45 54.7 °F 47.7 °F 30 in WNW 2 mph 3 mph 77% 0 in 70 W/m2
20:50 54.7 °F 47.7 °F 30 in WSW 0.9 mph 6 mph 77% 0 in 58 W/m2
20:55 54.7 °F 47.7 °F 30 in South 2 mph 2 mph 77% 0 in 46 W/m2
21:00 54.3 °F 47.3 °F 30 in WNW 0.9 mph 2 mph 77% 0 in 35 W/m2
21:05 54.1 °F 47.1 °F 30 in SSW 0.9 mph 3 mph 77% 0 in 26 W/m2
21:10 53.8 °F 47.5 °F 30 in SW 2 mph 3 mph 79% 0 in 19 W/m2
21:15 53.2 °F 46.6 °F 30 in Calm   2 mph 78% 0 in 14 W/m2
21:20 52.9 °F 46.9 °F 30 in Calm   1 mph 80% 0 in 11 W/m2
21:25 52.3 °F 46.8 °F 30 in Calm   2 mph 81% 0 in 7 W/m2
21:30 52 °F 46.6 °F 30 in South 0.9 mph 4 mph 82% 0 in 5 W/m2
21:35 51.4 °F 46.4 °F 30 in ENE 0.9 mph 2 mph 83% 0 in 0 W/m2
21:40 51.3 °F 46.6 °F 30 in Calm   4 mph 84% 0 in 0 W/m2
21:45 50.9 °F 46.6 °F 30 in Calm   4 mph 85% 0 in 0 W/m2
21:50 50.7 °F 46.8 °F 30 in Calm   3 mph 86% 0 in 0 W/m2
21:55 50.5 °F 46.6 °F 30 in ESE 0.9 mph 4 mph 86% 0 in 0 W/m2
22:00 50.4 °F 46.6 °F 30 in SE 0.9 mph 1 mph 87% 0 in 0 W/m2
22:05 50.2 °F 46.4 °F 30 in WSW 2.9 mph 3 mph 87% 0 in 0 W/m2
22:10 50 °F 46.6 °F 30 in WNW 2 mph 4 mph 88% 0 in 0 W/m2
22:15 49.8 °F 46.4 °F 30 in WSW 0.9 mph 3 mph 88% 0 in 0 W/m2
22:20 49.6 °F 46.6 °F 30 in West 0.9 mph 4 mph 89% 0 in 0 W/m2
22:25 49.6 °F 46.6 °F 30 in SE 2 mph 7 mph 89% 0 in 0 W/m2
22:30 49.6 °F 46.6 °F 30 in WNW 0.9 mph 2 mph 89% 0 in 0 W/m2
22:35 49.5 °F 46.4 °F 30 in West 2 mph 7 mph 89% 0 in 0 W/m2
22:40 49.5 °F 46.4 °F 30 in WSW 2 mph 6 mph 89% 0 in 0 W/m2
22:45 49.5 °F 46.6 °F 30 in West 0.9 mph 7 mph 90% 0 in 0 W/m2
22:50 49.5 °F 46.6 °F 30 in West 0.9 mph 5 mph 90% 0 in 0 W/m2
22:55 49.3 °F 46.4 °F 30 in WNW 6 mph 7 mph 90% 0 in 0 W/m2
23:00 49.3 °F 46.4 °F 30 in NW 2.9 mph 6 mph 90% 0 in 0 W/m2
23:05 49.3 °F 46.4 °F 30 in West 2 mph 7 mph 90% 0 in 0 W/m2
23:10 49.3 °F 46.4 °F 30 in WSW 2.9 mph 6 mph 90% 0 in 0 W/m2
23:16 49.3 °F 46.4 °F 30 in West 4 mph 8 mph 90% 0 in 0 W/m2
23:21 49.3 °F 46.4 °F 30 in SW 2.9 mph 9 mph 90% 0 in 0 W/m2
23:26 48.9 °F 46 °F 30 in WSW 2.9 mph 8 mph 90% 0 in 0 W/m2
23:31 48.9 °F 46.4 °F 30 in WNW 2 mph 7 mph 91% 0 in 0 W/m2
23:36 48.7 °F 46.2 °F 30 in West 2 mph 7 mph 91% 0 in 0 W/m2
23:41 48.7 °F 46.2 °F 30 in WNW 6 mph 8 mph 91% 0 in 0 W/m2
23:46 48.6 °F 46 °F 30 in WSW 0.9 mph 5 mph 91% 0 in 0 W/m2
23:51 48.6 °F 46 °F 30 in WSW 4 mph 5 mph 91% 0 in 0 W/m2
23:56 48.4 °F 46.2 °F 30 in SW 2 mph 10 mph 92% 0 in 0 W/m2
Juneau County Weather
Compliments of Weather Underground - 4 mb